Time;durP1;ratioP1;P1;durP2;ratioP2;P2;SDS_P1;SDS_P2;PMS_P1;PMS_P2;Temp;Humidity;BMP_temperature;BMP_pressure;BME280_temperature;BME280_humidity;BME280_pressure;Samples;Min_cycle;Max_cycle;Signal;HPM_P1;HPM_P2
2021/07/27 00:01:24;;;;;;;7.93;4.10;;;;;;;22.35;47.38;100431.22;5087605;28;20143;-22
2021/07/27 00:03:49;;;;;;;7.72;4.18;;;;;;;22.43;46.43;100434.13;5087589;28;20040;-22
2021/07/27 00:06:15;;;;;;;7.10;3.97;;;;;;;22.15;47.64;100434.91;5087716;28;20028;-22
2021/07/27 00:08:40;;;;;;;8.48;4.55;;;;;;;22.11;47.04;100431.16;5089572;28;20047;-22
2021/07/27 00:11:07;;;;;;;7.88;4.63;;;;;;;22.34;46.13;100435.03;5091365;28;20100;-22
2021/07/27 00:13:33;;;;;;;9.23;4.47;;;;;;;22.50;45.12;100431.06;5091576;28;20489;-22
2021/07/27 00:15:58;;;;;;;7.20;4.07;;;;;;;22.58;44.77;100430.41;5091436;28;20058;-22
2021/07/27 00:18:24;;;;;;;9.15;5.15;;;;;;;22.89;44.19;100429.22;5091487;28;20032;-22
2021/07/27 00:20:49;;;;;;;7.93;4.35;;;;;;;23.14;44.03;100428.88;5073302;28;20028;-22
2021/07/27 00:23:15;;;;;;;7.68;4.43;;;;;;;22.26;45.72;100404.69;5091352;28;20032;-22
2021/07/27 00:25:42;;;;;;;7.35;4.30;;;;;;;22.04;46.79;100418.72;5072872;28;20028;-23
2021/07/27 00:28:07;;;;;;;9.10;4.72;;;;;;;21.82;47.42;100412.97;5091121;28;20102;-22
2021/07/27 00:30:33;;;;;;;9.63;4.65;;;;;;;21.93;47.47;100411.00;5091394;28;20483;-22
2021/07/27 00:32:58;;;;;;;9.18;4.30;;;;;;;21.98;47.83;100417.16;5091396;28;20243;-22
2021/07/27 00:35:25;;;;;;;9.38;5.13;;;;;;;21.94;47.84;100410.69;5091565;28;20083;-22
2021/07/27 00:38:07;;;;;;;10.07;4.70;;;;;;;22.05;47.41;100423.06;5091019;28;20556;-22
2021/07/27 00:40:36;;;;;;;7.75;4.65;;;;;;;21.60;48.45;100416.16;5090949;28;20028;-22
2021/07/27 00:43:04;;;;;;;7.30;4.88;;;;;;;21.66;48.13;100407.69;5090728;28;20097;-22
2021/07/27 00:45:29;;;;;;;8.38;4.82;;;;;;;21.62;47.93;100425.63;5090725;28;20040;-21
2021/07/27 00:47:55;;;;;;;10.13;4.57;;;;;;;21.59;47.96;100419.97;5090871;28;20043;-22
2021/07/27 00:50:20;;;;;;;8.90;4.68;;;;;;;21.81;47.23;100433.09;5090839;28;20168;-22
2021/07/27 00:52:46;;;;;;;8.23;4.40;;;;;;;21.70;48.35;100432.38;5090820;28;20028;-22
2021/07/27 00:55:11;;;;;;;7.90;4.70;;;;;;;21.71;48.56;100435.88;5090483;28;20042;-21
2021/07/27 00:57:37;;;;;;;10.18;4.65;;;;;;;22.41;46.17;100439.03;5090623;28;20028;-22
2021/07/27 01:00:03;;;;;;;10.48;5.13;;;;;;;22.68;44.87;100443.09;5072347;28;20036;-22
2021/07/27 01:02:30;;;;;;;20.90;11.70;;;;;;;22.31;45.72;100444.56;5090611;28;20029;-22
2021/07/27 01:04:56;;;;;;;13.70;8.52;;;;;;;22.11;46.20;100440.16;5090638;28;20031;-22
2021/07/27 01:07:23;;;;;;;16.20;9.00;;;;;;;21.90;47.28;100447.66;5090291;28;20032;-22
2021/07/27 01:09:49;;;;;;;15.88;8.50;;;;;;;22.26;46.11;100445.44;5072249;28;20032;-22
2021/07/27 01:12:14;;;;;;;11.63;7.80;;;;;;;21.89;46.92;100429.75;5090412;28;20510;-22
2021/07/27 01:14:40;;;;;;;19.88;11.27;;;;;;;21.97;46.51;100447.34;5090408;28;20028;-22
2021/07/27 01:17:05;;;;;;;13.23;7.85;;;;;;;21.95;47.07;100431.31;5090197;28;20028;-22
2021/07/27 01:40:59;;;;;;;74.70;41.30;;;;;;;21.74;47.52;100440.72;5071701;28;20036;-22
2021/07/27 01:43:29;;;;;;;98.97;50.22;;;;;;;21.93;46.97;100455.25;5089896;28;20527;-22
2021/07/27 01:45:55;;;;;;;106.20;51.67;;;;;;;21.96;47.57;100441.06;5089589;28;20085;-22
2021/07/27 01:48:27;;;;;;;106.75;53.63;;;;;;;22.29;46.54;100452.19;5089761;28;20067;-22
2021/07/27 01:50:52;;;;;;;139.50;67.25;;;;;;;22.20;46.93;100440.31;5089605;28;20040;-22
2021/07/27 01:53:27;;;;;;;169.35;84.38;;;;;;;22.05;47.59;100454.88;5089331;28;20039;-22
2021/07/27 01:55:55;;;;;;;246.32;121.00;;;;;;;22.08;47.62;100452.38;5089670;28;20062;-22
2021/07/27 01:58:20;;;;;;;256.52;127.25;;;;;;;22.31;46.94;100452.72;5089664;28;20031;-22
2021/07/27 02:00:46;;;;;;;204.30;98.00;;;;;;;22.30;47.01;100450.31;5054817;28;20024;-22
2021/07/27 02:03:15;;;;;;;215.07;102.22;;;;;;;21.35;49.44;100425.25;5089234;28;20502;-22
2021/07/27 02:05:41;;;;;;;202.63;106.25;;;;;;;20.62;52.29;100445.72;5089429;28;20028;-22
2021/07/27 02:08:06;;;;;;;54.28;29.95;;;;;;;19.85;52.80;100460.16;5071101;28;20039;-22
2021/07/27 02:10:32;;;;;;;48.95;25.25;;;;;;;19.57;53.74;100450.66;5089269;28;20036;-22
2021/07/27 02:13:03;;;;;;;88.60;47.17;;;;;;;20.57;51.17;100459.25;5070731;28;20039;-22
2021/07/27 02:15:42;;;;;;;116.55;58.35;;;;;;;20.68;51.73;100460.88;5089383;28;20501;-22
2021/07/27 02:18:07;;;;;;;111.65;57.83;;;;;;;20.48;51.96;100462.50;5089145;28;20039;-22
2021/07/27 02:20:33;;;;;;;58.13;33.03;;;;;;;20.11;53.75;100472.91;5088993;28;20028;-22
2021/07/27 02:22:58;;;;;;;33.30;19.02;;;;;;;20.10;53.94;100465.84;5088910;28;20093;-22
2021/07/27 02:25:24;;;;;;;326.75;197.80;;;;;;;20.61;52.62;100468.47;5089031;28;20036;-22
2021/07/27 02:27:50;;;;;;;310.73;183.95;;;;;;;20.33;53.31;100453.59;5088863;28;20491;-22
2021/07/27 02:30:15;;;;;;;212.80;115.20;;;;;;;19.82;55.10;100460.72;5088681;28;20024;-22
2021/07/27 02:32:43;;;;;;;90.55;55.00;;;;;;;19.33;55.56;100457.66;5088933;28;20568;-22
2021/07/27 02:35:08;;;;;;;86.88;47.92;;;;;;;19.27;55.94;100449.53;5088633;28;20708;-22
2021/07/27 02:37:34;;;;;;;86.93;45.58;;;;;;;19.59;54.11;100442.28;5089205;28;20032;-22
2021/07/27 02:40:00;;;;;;;83.75;45.35;;;;;;;19.26;56.11;100437.09;5088623;28;20081;-22
2021/07/27 02:42:26;;;;;;;83.70;48.42;;;;;;;19.10;56.92;100458.94;5088757;28;20032;-22
2021/07/27 02:44:51;;;;;;;117.93;41.75;;;;;;;18.97;57.03;100449.47;5070582;28;20028;-22
2021/07/27 02:47:17;;;;;;;83.43;39.50;;;;;;;18.61;57.54;100419.56;5070378;28;20042;-22
2021/07/27 02:49:42;;;;;;;60.30;30.33;;;;;;;18.54;58.45;100463.03;5088556;28;20031;-22
2021/07/27 02:52:08;;;;;;;21.48;12.57;;;;;;;18.26;59.23;100442.59;5088522;28;20040;-22
2021/07/27 02:54:37;;;;;;;15.60;9.85;;;;;;;18.51;58.77;100460.03;5088439;28;20027;-22
2021/07/27 02:57:03;;;;;;;13.85;8.65;;;;;;;18.35;59.67;100454.56;5088365;28;20031;-22
2021/07/27 02:59:28;;;;;;;23.13;7.82;;;;;;;18.45;59.79;100464.59;5088547;28;20035;-22
2021/07/27 03:01:54;;;;;;;33.80;9.23;;;;;;;18.82;58.81;100461.03;5088752;28;20036;-21
2021/07/27 03:04:19;;;;;;;21.33;8.95;;;;;;;18.64;59.28;100478.47;5088355;28;20036;-22
2021/07/27 03:06:46;;;;;;;19.38;10.73;;;;;;;19.54;56.32;100470.13;5088304;28;20035;-22
2021/07/27 03:11:49;;;;;;;18.65;10.60;;;;;;;20.24;53.35;100453.38;5088537;28;20419;-22
2021/07/27 03:14:14;;;;;;;16.00;10.75;;;;;;;20.57;52.66;100464.66;5088457;28;20028;-22
2021/07/27 03:16:40;;;;;;;58.88;29.85;;;;;;;20.51;52.43;100476.59;5088028;28;20036;-22
2021/07/27 03:19:05;;;;;;;64.00;35.25;;;;;;;20.69;51.84;100473.31;5087935;28;20028;-22
2021/07/27 03:21:31;;;;;;;74.15;41.60;;;;;;;19.96;54.52;100476.41;5088505;28;20028;-22
2021/07/27 03:23:56;;;;;;;91.18;38.50;;;;;;;19.28;56.67;100486.31;5088401;28;20480;-22
2021/07/27 03:26:22;;;;;;;64.22;32.35;;;;;;;19.34;56.20;100462.78;5087464;28;20032;-22
2021/07/27 03:28:47;;;;;;;54.90;28.20;;;;;;;19.19;56.87;100476.28;5087803;28;20138;-22
2021/07/27 03:31:13;;;;;;;41.80;20.33;;;;;;;18.85;58.20;100480.22;5087799;28;20024;-22
2021/07/27 03:33:38;;;;;;;49.58;22.08;;;;;;;19.44;56.34;100480.94;5088057;28;20036;-22
2021/07/27 03:36:04;;;;;;;59.17;23.77;;;;;;;19.89;55.05;100484.81;5069799;28;20097;-22
2021/07/27 03:38:30;;;;;;;69.82;33.72;;;;;;;20.16;54.11;100491.81;5087988;28;20028;-22
2021/07/27 03:41:05;;;;;;;64.95;33.97;;;;;;;19.72;55.51;100497.78;5088333;28;20565;-22
2021/07/27 03:43:30;;;;;;;56.28;24.35;;;;;;;19.42;56.19;100478.50;5091389;28;20032;-22
2021/07/27 03:45:56;;;;;;;77.32;42.78;;;;;;;19.73;55.26;100499.41;5091942;28;20115;-22
2021/07/27 03:48:21;;;;;;;86.68;40.42;;;;;;;19.80;55.04;100483.72;5057365;28;20475;-21
2021/07/27 03:50:47;;;;;;;89.50;42.75;;;;;;;20.22;54.17;100491.53;5073753;28;20020;-22
2021/07/27 03:53:20;;;;;;;182.50;70.03;;;;;;;19.94;54.56;100478.56;5091682;28;20036;-21
2021/07/27 03:55:45;;;;;;;96.07;45.28;;;;;;;19.89;55.91;100505.66;5092045;28;20031;-22
2021/07/27 03:58:11;;;;;;;67.03;32.85;;;;;;;19.62;55.82;100483.13;5091987;28;20028;-22
2021/07/27 04:00:36;;;;;;;29.52;16.90;;;;;;;19.79;56.04;100506.44;5091910;28;20032;-22
2021/07/27 04:03:05;;;;;;;19.08;11.10;;;;;;;19.90;55.46;100505.38;5091558;28;20032;-22
2021/07/27 04:05:34;;;;;;;19.10;10.48;;;;;;;20.21;54.50;100487.22;5091871;28;20024;-22
2021/07/27 04:08:00;;;;;;;17.67;11.75;;;;;;;20.53;54.08;100507.75;5073655;28;20058;-22
2021/07/27 04:10:25;;;;;;;110.18;29.50;;;;;;;20.59;53.55;100476.88;5091604;28;20581;-22
2021/07/27 04:12:51;;;;;;;17.90;12.70;;;;;;;20.28;54.96;100503.19;5091392;28;20032;-22
2021/07/27 04:15:16;;;;;;;26.02;15.23;;;;;;;19.80;56.92;100498.06;5091406;28;20039;-22
2021/07/27 04:17:42;;;;;;;38.67;22.67;;;;;;;19.43;58.61;100514.47;5091527;28;20028;-22
2021/07/27 04:20:08;;;;;;;19.92;13.15;;;;;;;19.33;58.26;100501.75;5091975;28;20415;-22
2021/07/27 04:22:33;;;;;;;31.88;13.40;;;;;;;19.59;58.17;100502.59;5073607;28;20028;-22
2021/07/27 04:24:59;;;;;;;25.05;12.57;;;;;;;19.56;58.11;100489.63;5091230;28;20036;-23
2021/07/27 04:27:24;;;;;;;23.45;12.00;;;;;;;19.63;57.90;100494.75;5090994;28;20066;-22
2021/07/27 04:29:51;;;;;;;22.95;13.63;;;;;;;19.92;57.10;100494.25;5091287;28;20522;-22
2021/07/27 04:32:16;;;;;;;24.80;15.15;;;;;;;19.73;58.11;100504.81;5091204;28;20042;-22
2021/07/27 04:34:41;;;;;;;21.80;12.07;;;;;;;19.66;58.94;100489.63;5091214;28;20028;-21
2021/07/27 04:37:07;;;;;;;19.05;10.45;;;;;;;19.66;59.23;100500.47;5091049;28;20078;-22
2021/07/27 04:39:33;;;;;;;23.38;14.82;;;;;;;19.93;59.95;100510.25;5091374;28;20020;-22
2021/07/27 04:41:58;;;;;;;22.27;16.60;;;;;;;20.41;56.89;100510.78;5091004;28;20032;-22
2021/07/27 04:44:24;;;;;;;20.08;13.63;;;;;;;20.95;54.80;100514.69;5073030;28;20036;-22
2021/07/27 04:46:49;;;;;;;20.80;12.88;;;;;;;21.39;54.22;100503.13;5090919;28;20032;-22
2021/07/27 04:49:14;;;;;;;24.20;15.68;;;;;;;21.66;54.52;100501.88;5072505;28;20109;-22
2021/07/27 04:51:40;;;;;;;27.30;16.58;;;;;;;21.73;54.38;100512.41;5091004;28;20039;-22
2021/07/27 04:54:08;;;;;;;21.40;13.07;;;;;;;21.73;53.00;100496.13;5090143;28;20035;-22
2021/07/27 04:56:33;;;;;;;19.67;13.30;;;;;;;21.76;52.82;100515.38;5090837;28;20395;-22
2021/07/27 04:58:59;;;;;;;22.52;15.15;;;;;;;21.50;52.51;100528.31;5090759;28;20040;-22
2021/07/27 05:01:25;;;;;;;26.85;16.23;;;;;;;21.23;53.71;100536.84;5073185;28;20488;-22
2021/07/27 05:03:50;;;;;;;21.90;13.65;;;;;;;21.60;52.34;100520.09;5090618;28;20483;-22
2021/07/27 05:06:22;;;;;;;22.45;14.40;;;;;;;21.51;54.73;100535.34;5090283;28;20024;-23
2021/07/27 05:08:48;;;;;;;21.25;13.50;;;;;;;21.61;52.81;100519.00;5090616;28;20040;-22
2021/07/27 05:11:13;;;;;;;20.77;13.63;;;;;;;21.84;52.74;100531.06;5090390;28;20032;-22
2021/07/27 05:13:39;;;;;;;18.98;13.57;;;;;;;22.16;52.42;100507.19;5089783;28;20035;-22
2021/07/27 05:16:10;;;;;;;57.05;30.38;;;;;;;22.56;50.23;100521.50;5089491;28;20077;-22
2021/07/27 05:18:36;;;;;;;112.78;55.08;;;;;;;22.50;50.26;100509.88;5090321;28;20030;-22
2021/07/27 05:21:01;;;;;;;69.13;45.22;;;;;;;22.81;49.75;100513.06;5090647;28;20035;-22
2021/07/27 05:23:30;;;;;;;35.50;19.10;;;;;;;23.04;48.44;100535.91;5090536;28;20028;-22
2021/07/27 05:25:55;;;;;;;34.88;21.60;;;;;;;23.07;48.10;100510.06;5090301;28;20032;-22
2021/07/27 05:28:21;;;;;;;24.13;15.25;;;;;;;23.05;47.91;100525.88;5090436;28;20992;-22
2021/07/27 05:30:46;;;;;;;28.95;17.23;;;;;;;23.47;47.53;100533.19;5090156;28;20028;-22
2021/07/27 05:33:12;;;;;;;50.40;29.08;;;;;;;23.11;46.78;100508.38;5089742;28;20043;-22
2021/07/27 05:35:38;;;;;;;21.55;12.80;;;;;;;23.09;47.38;100531.53;5090079;28;20035;-22
2021/07/27 05:38:06;;;;;;;14.30;8.75;;;;;;;23.14;46.26;100535.00;5090095;28;20509;-22
2021/07/27 05:40:31;;;;;;;10.77;7.40;;;;;;;23.25;45.57;100517.44;5089811;28;20065;-22
2021/07/27 05:42:58;;;;;;;10.65;7.40;;;;;;;23.33;46.27;100528.75;5090249;28;20528;-22
2021/07/27 05:45:25;;;;;;;14.02;7.75;;;;;;;23.32;45.03;100535.31;5071832;28;20035;-22
2021/07/27 05:47:51;;;;;;;10.15;7.18;;;;;;;23.65;45.15;100533.47;5090174;28;20386;-22
2021/07/27 05:50:17;;;;;;;12.18;7.40;;;;;;;23.69;45.33;100522.81;5089809;28;20499;-22
2021/07/27 05:52:42;;;;;;;12.75;7.55;;;;;;;23.93;46.26;100518.09;5089707;28;20039;-22
2021/07/27 05:55:08;;;;;;;12.82;7.03;;;;;;;23.83;45.28;100518.28;5089496;28;20789;-22
2021/07/27 05:57:33;;;;;;;13.48;7.93;;;;;;;24.01;45.78;100528.31;5089838;28;20031;-22
2021/07/27 05:59:59;;;;;;;14.00;7.47;;;;;;;23.96;45.67;100520.22;5089650;28;20553;-23
2021/07/27 06:02:25;;;;;;;12.05;7.18;;;;;;;23.74;46.32;100533.63;5089788;28;20031;-24
2021/07/27 06:04:51;;;;;;;15.52;8.20;;;;;;;23.74;46.77;100526.28;5089281;28;20520;-24
2021/07/27 06:07:16;;;;;;;15.88;8.07;;;;;;;24.01;46.97;100525.59;5088547;28;20508;-24
2021/07/27 06:09:42;;;;;;;12.88;7.93;;;;;;;24.23;45.79;100505.06;5089446;28;20032;-24
2021/07/27 06:12:10;;;;;;;10.70;6.70;;;;;;;24.22;45.61;100515.16;5089895;28;20077;-24
2021/07/27 06:14:36;;;;;;;11.80;7.32;;;;;;;24.25;45.52;100502.84;5089209;28;20085;-24
2021/07/27 06:17:01;;;;;;;12.07;7.45;;;;;;;24.23;46.03;100513.22;5089460;28;20027;-24
2021/07/27 06:19:27;;;;;;;13.05;7.38;;;;;;;24.22;46.22;100515.16;5089391;28;20923;-24
2021/07/27 06:21:52;;;;;;;10.25;6.95;;;;;;;24.54;45.25;100509.97;5089184;28;20101;-24
2021/07/27 06:24:18;;;;;;;12.80;7.18;;;;;;;24.85;43.98;100511.00;5089214;28;20498;-24
2021/07/27 06:26:44;;;;;;;10.18;6.65;;;;;;;25.19;44.38;100500.75;5088754;28;20385;-24
2021/07/27 06:29:09;;;;;;;12.63;7.22;;;;;;;25.08;42.98;100491.97;5088559;28;20059;-24
2021/07/27 06:31:35;;;;;;;11.30;7.63;;;;;;;24.84;43.01;100498.47;5089131;28;20119;-24
2021/07/27 06:34:00;;;;;;;12.18;6.75;;;;;;;25.04;43.77;100493.72;5088954;28;20449;-24
2021/07/27 06:36:28;;;;;;;11.00;6.85;;;;;;;25.20;43.84;100494.19;5088895;28;20024;-24
2021/07/27 06:38:54;;;;;;;15.77;7.68;;;;;;;25.25;42.38;100496.81;5088654;28;20128;-24
2021/07/27 06:41:19;;;;;;;8.88;6.68;;;;;;;25.31;42.13;100494.78;5088504;28;20487;-24
2021/07/27 06:43:45;;;;;;;9.93;6.90;;;;;;;25.46;42.64;100494.47;5088727;28;20039;-24
2021/07/27 06:46:10;;;;;;;10.68;6.82;;;;;;;25.60;42.55;100486.19;5088776;28;20389;-24
2021/07/27 06:48:36;;;;;;;14.18;6.85;;;;;;;26.02;41.79;100473.97;5088719;28;20063;-24
2021/07/27 06:51:27;;;;;;;9.50;6.28;;;;;;;26.34;40.87;100496.66;5088527;28;20192;-24
2021/07/27 06:53:53;;;;;;;10.32;6.88;;;;;;;26.27;41.63;100493.56;5083779;28;20411;-24
2021/07/27 06:56:18;;;;;;;10.93;6.05;;;;;;;26.01;40.00;100486.03;5088516;28;20020;-24
2021/07/27 06:58:44;;;;;;;9.10;6.32;;;;;;;26.11;40.13;100478.69;5088698;28;20109;-24
2021/07/27 07:01:10;;;;;;;13.30;6.30;;;;;;;26.36;38.88;100479.97;5088131;28;20024;-24
2021/07/27 07:03:39;;;;;;;9.05;6.25;;;;;;;26.69;38.97;100472.22;5088429;28;20080;-24
2021/07/27 07:06:05;;;;;;;13.55;6.25;;;;;;;26.83;39.39;100489.31;5088487;28;20032;-24
2021/07/27 07:08:30;;;;;;;10.65;6.18;;;;;;;26.58;39.31;100476.34;5088421;28;20097;-24
2021/07/27 07:11:00;;;;;;;10.15;6.57;;;;;;;26.78;39.69;100478.50;5088504;28;20024;-24
2021/07/27 07:13:26;;;;;;;9.43;6.55;;;;;;;26.72;39.87;100481.72;5088249;28;20431;-24
2021/07/27 07:15:52;;;;;;;8.50;5.85;;;;;;;26.50;39.40;100477.09;5088206;28;20024;-24
2021/07/27 07:18:17;;;;;;;8.80;6.03;;;;;;;26.74;39.04;100491.22;5087820;28;20407;-24
2021/07/27 07:20:43;;;;;;;8.65;5.85;;;;;;;27.19;40.26;100490.19;5088571;28;20024;-24
2021/07/27 07:23:09;;;;;;;9.23;6.20;;;;;;;27.43;38.15;100487.81;5088161;28;20028;-24
2021/07/27 07:25:39;;;;;;;9.13;6.13;;;;;;;27.62;37.39;100482.03;5088040;28;20047;-24
2021/07/27 07:28:07;;;;;;;10.27;6.00;;;;;;;27.75;37.77;100485.69;5088271;28;20052;-24
2021/07/27 07:30:34;;;;;;;8.93;6.13;;;;;;;27.99;36.34;100485.22;5087947;28;20051;-24
2021/07/27 07:33:00;;;;;;;8.80;5.15;;;;;;;27.93;36.30;100481.03;5087771;28;20052;-24
2021/07/27 07:35:28;;;;;;;9.57;5.78;;;;;;;28.10;37.77;100479.38;5088554;28;20032;-24
2021/07/27 07:37:54;;;;;;;10.88;5.80;;;;;;;28.05;37.15;100472.94;5088418;28;20074;-24
2021/07/27 07:40:19;;;;;;;8.85;5.68;;;;;;;27.92;37.33;100479.41;5070405;28;20818;-24
2021/07/27 07:42:45;;;;;;;11.15;5.63;;;;;;;28.43;35.14;100483.13;5088226;28;20053;-24
2021/07/27 07:45:10;;;;;;;8.40;4.53;;;;;;;28.40;34.80;100461.00;5087902;28;20494;-24
2021/07/27 07:47:36;;;;;;;9.57;6.07;;;;;;;28.33;35.54;100467.03;5087839;28;20116;-24
2021/07/27 07:50:01;;;;;;;13.52;6.10;;;;;;;28.79;34.95;100476.34;5087969;28;20055;-24
2021/07/27 07:52:27;;;;;;;8.65;5.40;;;;;;;28.09;35.75;100461.31;5087983;28;20550;-24
2021/07/27 07:54:52;;;;;;;11.00;5.97;;;;;;;28.44;34.68;100461.97;5087938;28;20028;-24
2021/07/27 07:57:18;;;;;;;8.68;5.13;;;;;;;28.39;34.90;100476.69;5087691;28;20471;-24
2021/07/27 07:59:44;;;;;;;9.85;5.38;;;;;;;28.78;33.29;100477.47;5087895;28;20028;-24
2021/07/27 08:02:10;;;;;;;7.95;5.10;;;;;;;28.93;34.10;100483.53;5087668;28;20077;-24
2021/07/27 08:04:35;;;;;;;9.80;5.55;;;;;;;29.04;33.82;100484.75;5087751;28;20107;-24
2021/07/27 08:07:01;;;;;;;8.13;5.25;;;;;;;28.95;34.75;100482.09;5087306;28;20032;-24
2021/07/27 08:09:26;;;;;;;9.38;5.72;;;;;;;29.28;33.23;100483.31;5087769;28;20031;-24
2021/07/27 08:11:52;;;;;;;8.30;4.53;;;;;;;29.68;31.87;100491.06;5087884;28;20040;-24
2021/07/27 08:14:17;;;;;;;8.50;4.72;;;;;;;29.43;31.33;100480.78;5087913;28;20024;-24
2021/07/27 08:16:43;;;;;;;7.60;4.90;;;;;;;29.38;31.36;100469.19;5087924;28;20025;-24
2021/07/27 08:19:08;;;;;;;9.95;5.45;;;;;;;29.77;30.92;100467.06;5087421;28;20757;-24
2021/07/27 08:21:34;;;;;;;8.45;5.20;;;;;;;30.19;31.03;100467.72;5087742;28;20119;-24
2021/07/27 08:23:59;;;;;;;8.20;5.28;;;;;;;29.99;31.84;100447.41;5087661;28;20024;-24
2021/07/27 08:26:25;;;;;;;7.50;4.55;;;;;;;30.54;29.27;100461.03;5087338;28;20031;-24
2021/07/27 08:28:50;;;;;;;10.20;4.57;;;;;;;30.72;30.15;100454.13;5087882;28;20063;-24
2021/07/27 08:31:16;;;;;;;7.57;4.88;;;;;;;30.18;31.16;100444.16;5091000;28;20047;-24
2021/07/27 08:33:41;;;;;;;7.22;4.70;;;;;;;30.50;32.07;100443.59;5091193;28;20032;-24
2021/07/27 08:36:07;;;;;;;8.85;5.30;;;;;;;30.34;30.48;100458.06;5091526;28;20028;-24
2021/07/27 08:38:36;;;;;;;7.32;4.53;;;;;;;30.55;29.29;100457.16;5090990;28;20507;-24
2021/07/27 08:41:06;;;;;;;8.52;4.88;;;;;;;30.77;31.78;100451.16;5073158;28;20583;-24
2021/07/27 08:43:31;;;;;;;8.88;4.85;;;;;;;30.81;29.42;100442.97;5056890;28;20514;-24
2021/07/27 08:45:57;;;;;;;8.82;5.43;;;;;;;31.23;29.69;100443.50;5090898;28;20080;-24
2021/07/27 08:48:22;;;;;;;9.65;5.13;;;;;;;31.17;29.67;100436.63;5072847;28;20039;-24
2021/07/27 08:50:48;;;;;;;10.63;5.50;;;;;;;30.96;30.62;100436.00;5090819;28;20492;-24
2021/07/27 08:53:13;;;;;;;7.70;5.28;;;;;;;30.67;31.51;100443.38;5090647;28;20118;-23
2021/07/27 08:55:39;;;;;;;10.75;5.07;;;;;;;30.84;31.95;100426.59;5090965;28;20522;-24
2021/07/27 08:58:04;;;;;;;11.07;4.90;;;;;;;31.11;30.69;100448.25;5091012;28;20415;-24
2021/07/27 09:00:31;;;;;;;8.15;5.60;;;;;;;31.35;31.20;100434.38;5090520;28;20035;-24
2021/07/27 09:03:09;;;;;;;11.38;5.50;;;;;;;31.55;30.11;100431.81;5090800;28;20084;-24
2021/07/27 09:05:34;;;;;;;8.18;5.85;;;;;;;31.53;29.59;100423.88;5090404;28;20396;-23
2021/07/27 09:08:07;;;;;;;8.35;5.20;;;;;;;31.33;30.08;100430.38;5090639;28;20035;-24
2021/07/27 09:10:33;;;;;;;8.02;5.30;;;;;;;31.76;30.28;100415.03;5090549;28;20518;-24
2021/07/27 09:13:08;;;;;;;9.45;5.85;;;;;;;31.83;28.73;100420.72;5090270;28;20032;-24
2021/07/27 09:15:44;;;;;;;10.23;5.45;;;;;;;31.60;30.21;100428.78;5090537;28;20032;-24
2021/07/27 09:18:18;;;;;;;13.65;5.65;;;;;;;32.18;28.73;100426.38;5090481;28;20016;-24
2021/07/27 09:20:48;;;;;;;8.20;4.85;;;;;;;32.54;27.61;100420.91;5073584;28;20115;-24
2021/07/27 09:23:21;;;;;;;7.93;5.07;;;;;;;32.82;27.84;100420.78;5090242;28;20024;-24
2021/07/27 09:25:49;;;;;;;8.05;4.88;;;;;;;33.31;26.42;100416.69;5090426;28;20058;-24
2021/07/27 09:28:15;;;;;;;10.90;5.85;;;;;;;33.39;26.66;100418.41;5089723;28;20071;-24
2021/07/27 09:30:42;;;;;;;9.98;5.28;;;;;;;33.27;25.44;100424.09;5090122;28;20036;-24
2021/07/27 09:33:08;;;;;;;;;;;;;;;33.39;26.42;100416.44;5090314;28;20070;-24
2021/07/27 09:35:34;;;;;;;9.25;5.72;;;;;;;33.31;27.64;100419.44;5089860;28;19947;-24
2021/07/27 09:38:01;;;;;;;7.88;5.57;;;;;;;33.07;27.14;100413.00;5071844;28;20027;-24
2021/07/27 09:40:26;;;;;;;6.93;4.70;;;;;;;33.26;25.83;100420.50;5089741;28;20491;-24
2021/07/27 09:42:52;;;;;;;8.45;5.15;;;;;;;33.36;26.01;100424.66;5089979;28;20043;-24
2021/07/27 09:45:17;;;;;;;6.93;4.68;;;;;;;33.55;25.76;100413.59;5055194;28;20036;-24
2021/07/27 09:47:44;;;;;;;9.63;5.25;;;;;;;33.81;25.47;100414.84;5072141;28;20028;-24
2021/07/27 09:50:10;;;;;;;7.20;4.72;;;;;;;33.91;26.74;100414.25;5072320;28;20463;-24
2021/07/27 09:52:36;;;;;;;10.70;4.93;;;;;;;33.91;25.51;100419.78;5055265;28;20483;-24
2021/07/27 09:55:01;;;;;;;9.30;5.15;;;;;;;34.21;25.34;100402.50;5070977;28;20036;-24
2021/07/27 09:57:26;;;;;;;6.55;4.72;;;;;;;34.07;24.12;100413.31;5071198;28;20025;-24
2021/07/27 09:59:52;;;;;;;8.77;4.60;;;;;;;34.16;24.04;100413.88;5088713;28;20043;-24
2021/07/27 10:02:18;;;;;;;6.97;4.35;;;;;;;34.03;23.98;100405.75;5069516;28;20020;-24
2021/07/27 10:04:47;;;;;;;8.27;4.40;;;;;;;34.13;22.89;100403.53;5069662;28;20073;-24
2021/07/27 10:07:13;;;;;;;6.03;4.25;;;;;;;34.11;23.83;100401.13;5069528;28;20028;-24
2021/07/27 10:09:38;;;;;;;8.57;4.60;;;;;;;34.58;22.40;100401.88;5070018;28;20043;-24
2021/07/27 10:12:13;;;;;;;7.40;4.50;;;;;;;34.31;22.77;100388.03;5087835;28;20510;-24
2021/07/27 10:14:45;;;;;;;7.57;4.43;;;;;;;34.21;22.38;100402.50;5087944;28;20502;-24
2021/07/27 10:17:14;;;;;;;7.43;4.50;;;;;;;34.65;23.30;100395.66;5088330;28;20028;-24
2021/07/27 10:19:52;;;;;;;7.85;4.38;;;;;;;34.83;21.10;100390.34;5089254;28;20501;-24
2021/07/27 10:22:19;;;;;;;6.50;4.50;;;;;;;35.16;20.18;100379.28;5089085;28;20028;-24
2021/07/27 10:24:46;;;;;;;6.18;4.28;;;;;;;35.15;20.05;100386.03;5070797;28;20430;-24
2021/07/27 10:27:16;;;;;;;9.93;6.85;;;;;;;35.03;21.37;100379.91;5088443;28;20097;-24
2021/07/27 10:29:42;;;;;;;7.07;4.60;;;;;;;34.94;20.82;100385.72;5089252;28;20107;-24
2021/07/27 10:32:12;;;;;;;8.73;5.15;;;;;;;34.92;20.21;100368.69;5088862;28;20115;-24
2021/07/27 10:34:40;;;;;;;7.63;4.60;;;;;;;35.49;20.51;100374.09;5089202;28;20361;-24
2021/07/27 10:37:07;;;;;;;8.98;4.75;;;;;;;36.09;21.85;100361.94;5088540;28;20024;-24
2021/07/27 10:39:32;;;;;;;8.10;4.55;;;;;;;36.03;19.72;100366.28;5088864;28;20028;-24
2021/07/27 10:42:06;;;;;;;9.55;4.53;;;;;;;36.14;19.40;100350.47;5089359;28;20097;-24
2021/07/27 10:44:35;;;;;;;9.73;4.55;;;;;;;36.34;22.14;100356.56;5088436;28;20035;-24
2021/07/27 10:47:00;;;;;;;7.78;4.72;;;;;;;36.07;22.89;100356.78;5088221;28;20054;-22
2021/07/27 10:49:27;;;;;;;10.32;4.60;;;;;;;35.82;22.68;100351.03;5070455;28;20028;-22
2021/07/27 10:51:53;;;;;;;7.07;4.78;;;;;;;36.63;21.14;100340.09;5087986;28;20028;-22
2021/07/27 10:54:26;;;;;;;7.30;4.63;;;;;;;36.75;19.67;100348.88;5088560;28;20042;-22
2021/07/27 10:56:59;;;;;;;7.93;4.45;;;;;;;36.59;20.60;100348.38;5088528;28;20028;-22
2021/07/27 10:59:26;;;;;;;9.90;4.45;;;;;;;35.85;22.17;100324.50;5088457;28;20035;-22
2021/07/27 11:01:53;;;;;;;7.57;4.93;;;;;;;35.84;20.95;100343.13;5088410;28;20427;-22
2021/07/27 11:04:21;;;;;;;9.05;4.47;;;;;;;36.20;20.81;100341.41;5088321;28;20447;-22
2021/07/27 11:06:46;;;;;;;7.85;4.72;;;;;;;36.33;20.66;100341.91;5088291;28;20096;-22
2021/07/27 11:09:12;;;;;;;8.05;4.30;;;;;;;36.76;21.11;100335.78;5070191;28;20403;-22
2021/07/27 11:11:47;;;;;;;6.20;4.45;;;;;;;36.98;18.77;100337.44;5088189;28;20036;-22
2021/07/27 11:14:20;;;;;;;7.68;4.82;;;;;;;36.92;19.70;100332.66;5088184;28;20063;-22
2021/07/27 11:16:46;;;;;;;7.18;4.68;;;;;;;36.80;21.81;100337.38;5088158;28;20110;-22
2021/07/27 11:19:22;;;;;;;8.10;4.90;;;;;;;36.88;21.00;100320.72;5088129;28;20039;-22
2021/07/27 11:21:48;;;;;;;7.57;4.38;;;;;;;36.71;21.86;100327.81;5070733;28;20035;-22
2021/07/27 11:24:13;;;;;;;10.38;4.68;;;;;;;36.91;21.84;100331.06;5087976;28;20039;-21
2021/07/27 11:26:39;;;;;;;9.88;4.47;;;;;;;37.45;19.05;100320.84;5087918;28;20032;-21
2021/07/27 11:29:10;;;;;;;8.25;4.93;;;;;;;37.00;20.66;100318.41;5087930;28;20044;-22
2021/07/27 11:31:49;;;;;;;6.68;4.75;;;;;;;36.85;20.17;100313.19;5088251;28;20495;-21
2021/07/27 11:34:28;;;;;;;9.80;4.70;;;;;;;36.36;20.92;100299.47;5088347;28;20043;-22
2021/07/27 11:36:54;;;;;;;8.25;4.57;;;;;;;37.54;20.36;100307.34;5087793;28;20024;-22
2021/07/27 11:39:19;;;;;;;10.07;4.55;;;;;;;37.27;20.19;100320.84;5087756;28;20085;-21